Royal, North Carolina
Current Conditions -  °F | °C
As of 10:54 AM on Tuesday 21 Oct 2014 (Local Time) from KEWN Reporting Station
Clear Clear  
Wind Chill: 74°   Ceiling: Unl
Heat Index: 74°   Visibility: 10mi
Dew Point: 55°   Wind: 5mph
Humidity: 52%   Direction: 300°WNW
Pressure: 29.93"   Gusts: NA
Location:  35.2948°N, 76.7649°W
Report Text: KEWN 211454Z 30004KT 10SM CLR 23/13 A2993 RMK AO2 SLP134 T02330128 58009
Loading
Personal Weather Stations






























Interactive Weather Map
Tropical Storm Tracking
New forecast layout! Learn more

10-Day Weather Forecast

Advertisements
Track Severe Weather on mobile